Time;durP1;ratioP1;P1;durP2;ratioP2;P2;SDS_P1;SDS_P2;PMS_P1;PMS_P2;Temp;Humidity;BMP_temperature;BMP_pressure;BME280_temperature;BME280_humidity;BME280_pressure;Samples;Min_cycle;Max_cycle;Signal;HPM_P1;HPM_P2
2023/08/31 00:00:41;;;;;;;1.40;1.30;;;24.00;84.10;;;;;;6126722;23;20811;-93
2023/08/31 00:03:09;;;;;;;1.30;1.10;;;24.00;84.10;;;;;;6126459;23;20412;-93
2023/08/31 00:05:40;;;;;;;1.30;1.17;;;24.00;84.20;;;;;;6126554;23;20453;-92
2023/08/31 00:08:07;;;;;;;1.60;1.50;;;24.00;84.00;;;;;;6126386;23;20389;-86
2023/08/31 00:10:34;;;;;;;1.30;1.20;;;24.00;84.10;;;;;;6125968;23;20400;-93
2023/08/31 00:13:01;;;;;;;1.20;1.10;;;24.00;84.10;;;;;;6127141;23;20415;-92
2023/08/31 00:15:29;;;;;;;1.20;1.00;;;24.00;84.10;;;;;;6154185;23;20435;-93
2023/08/31 00:17:56;;;;;;;1.37;1.10;;;24.00;84.10;;;;;;6157580;23;20403;-93
2023/08/31 00:20:23;;;;;;;1.50;1.37;;;24.00;84.00;;;;;;6157562;23;20487;-92
2023/08/31 00:22:51;;;;;;;1.20;1.10;;;24.00;84.10;;;;;;6157528;23;20498;-93
2023/08/31 00:25:17;;;;;;;1.60;1.23;;;24.10;84.30;;;;;;6157158;23;20530;-93
2023/08/31 00:27:47;;;;;;;1.50;1.30;;;24.00;84.10;;;;;;6157517;23;20399;-93
2023/08/31 00:30:14;;;;;;;1.10;1.00;;;24.00;84.10;;;;;;6157624;23;20431;-89
2023/08/31 00:32:42;;;;;;;1.87;1.30;;;24.00;84.00;;;;;;6157119;23;20414;-93
2023/08/31 00:35:09;;;;;;;1.20;1.10;;;24.00;84.10;;;;;;6157448;23;20407;-93
2023/08/31 00:37:36;;;;;;;1.37;1.10;;;24.00;84.00;;;;;;6157060;23;20654;-89
2023/08/31 00:40:06;;;;;;;2.60;1.60;;;24.00;84.10;;;;;;6157392;23;20406;-91
2023/08/31 00:42:33;;;;;;;1.60;1.13;;;24.00;84.10;;;;;;6157294;23;20388;-92
2023/08/31 00:45:00;;;;;;;1.40;1.20;;;24.00;84.10;;;;;;6157374;23;20453;-93
2023/08/31 00:47:27;;;;;;;1.30;1.20;;;24.00;84.00;;;;;;6157488;23;20491;-90
2023/08/31 00:49:54;;;;;;;1.90;1.20;;;24.00;84.00;;;;;;6157052;23;20412;-93
2023/08/31 00:52:21;;;;;;;1.20;0.97;;;24.00;84.00;;;;;;6157105;23;20406;-93
2023/08/31 00:54:50;;;;;;;1.50;1.30;;;24.00;84.10;;;;;;6157591;23;20407;-91
2023/08/31 00:57:21;;;;;;;1.97;1.50;;;24.00;84.00;;;;;;6157364;23;20790;-85
2023/08/31 00:59:47;;;;;;;2.50;1.33;;;24.00;84.00;;;;;;6157106;23;20392;-93
2023/08/31 01:02:21;;;;;;;1.20;1.10;;;24.00;84.00;;;;;;6157208;23;20404;-93
2023/08/31 01:04:57;;;;;;;1.93;1.23;;;24.00;84.00;;;;;;6130756;23;20927;-86
2023/08/31 01:07:32;;;;;;;1.90;1.40;;;24.00;84.10;;;;;;6157238;23;20404;-90
2023/08/31 01:10:07;;;;;;;1.20;1.10;;;24.00;84.00;;;;;;6157058;23;20388;-92
2023/08/31 01:12:43;;;;;;;1.13;1.00;;;24.00;84.00;;;;;;6157324;23;20380;-93
2023/08/31 01:15:13;;;;;;;1.80;1.33;;;24.00;84.00;;;;;;6156433;23;20437;-92
2023/08/31 01:17:43;;;;;;;1.70;1.20;;;24.00;84.00;;;;;;6157120;23;20404;-93
2023/08/31 01:20:12;;;;;;;2.80;1.40;;;24.00;83.90;;;;;;6157000;23;20463;-93
2023/08/31 01:22:41;;;;;;;1.60;1.10;;;24.00;84.00;;;;;;6156778;23;20407;-92
2023/08/31 01:25:10;;;;;;;1.60;1.30;;;24.00;84.00;;;;;;6156090;23;20972;-92
2023/08/31 01:27:38;;;;;;;1.20;0.97;;;24.00;83.90;;;;;;6157120;23;20396;-93
2023/08/31 01:30:06;;;;;;;1.53;1.13;;;23.90;83.90;;;;;;6156933;23;20408;-93
2023/08/31 01:32:33;;;;;;;1.40;1.23;;;23.90;83.90;;;;;;6157005;23;20457;-86
2023/08/31 01:35:02;;;;;;;1.47;1.10;;;23.90;83.90;;;;;;6156891;23;20430;-85
2023/08/31 01:37:35;;;;;;;1.30;1.10;;;24.00;83.90;;;;;;6157029;23;20435;-92
2023/08/31 01:40:10;;;;;;;1.53;1.20;;;23.90;84.00;;;;;;6156935;23;20384;-85
2023/08/31 01:42:39;;;;;;;1.20;1.00;;;23.90;83.80;;;;;;6156877;23;20387;-86
2023/08/31 01:45:08;;;;;;;1.27;1.10;;;24.00;84.00;;;;;;6156678;23;20486;-85
2023/08/31 01:47:36;;;;;;;1.10;0.90;;;23.90;83.90;;;;;;6157084;23;20516;-93
2023/08/31 01:50:03;;;;;;;1.10;0.90;;;23.90;83.80;;;;;;6156505;23;20404;-85
2023/08/31 01:52:30;;;;;;;1.70;1.30;;;23.90;83.80;;;;;;6156949;23;20411;-86
2023/08/31 01:54:57;;;;;;;1.30;1.20;;;23.90;83.80;;;;;;6156453;23;20414;-85
2023/08/31 01:57:24;;;;;;;1.30;1.20;;;24.00;83.90;;;;;;6157015;23;20434;-92
2023/08/31 01:59:52;;;;;;;1.40;1.10;;;23.90;83.90;;;;;;6156552;23;20402;-85
2023/08/31 02:02:19;;;;;;;1.77;1.10;;;24.00;83.90;;;;;;6156102;23;20495;-85
2023/08/31 02:04:45;;;;;;;1.30;1.13;;;23.90;83.70;;;;;;6155993;23;20442;-85
2023/08/31 02:07:12;;;;;;;1.20;1.00;;;23.90;83.80;;;;;;6156088;23;20404;-86
2023/08/31 02:09:39;;;;;;;1.30;1.20;;;23.90;83.80;;;;;;6155699;23;20435;-85
2023/08/31 02:12:09;;;;;;;1.20;1.00;;;23.90;83.70;;;;;;6155747;23;20406;-85
2023/08/31 02:14:36;;;;;;;2.40;1.27;;;23.90;83.70;;;;;;6156120;23;20431;-93
2023/08/31 02:17:04;;;;;;;1.30;1.00;;;24.00;83.80;;;;;;6156017;23;20392;-85
2023/08/31 02:19:31;;;;;;;6.80;1.00;;;23.90;83.60;;;;;;6156452;23;20458;-86
2023/08/31 02:21:57;;;;;;;2.33;1.17;;;23.90;83.60;;;;;;6155737;23;20903;-85
2023/08/31 02:24:24;;;;;;;1.20;1.10;;;23.90;83.60;;;;;;6156061;23;20396;-85
2023/08/31 02:26:51;;;;;;;1.30;0.90;;;23.90;83.60;;;;;;6155872;23;21009;-85
2023/08/31 02:29:18;;;;;;;1.13;0.90;;;23.90;83.60;;;;;;6129930;23;20408;-86
2023/08/31 02:31:45;;;;;;;1.20;1.07;;;23.90;83.60;;;;;;6156044;23;20407;-86
2023/08/31 02:34:13;;;;;;;1.20;1.00;;;23.90;83.70;;;;;;6156257;23;20474;-85
2023/08/31 02:36:40;;;;;;;2.60;1.00;;;23.90;83.60;;;;;;6156474;23;20392;-85
2023/08/31 02:39:06;;;;;;;1.57;1.10;;;23.80;83.50;;;;;;6155902;23;20407;-85
2023/08/31 02:41:33;;;;;;;1.47;1.10;;;23.90;83.60;;;;;;6156108;23;20470;-92
2023/08/31 02:44:00;;;;;;;1.20;1.10;;;23.90;83.60;;;;;;6156177;23;20427;-85
2023/08/31 02:46:27;;;;;;;1.30;1.20;;;23.80;83.50;;;;;;6155917;23;20534;-85
2023/08/31 02:48:54;;;;;;;1.90;1.30;;;23.80;83.50;;;;;;6156026;23;20408;-85
2023/08/31 02:51:22;;;;;;;1.50;1.10;;;23.80;83.40;;;;;;6156400;23;20399;-85
2023/08/31 02:53:49;;;;;;;1.30;1.10;;;23.90;83.50;;;;;;6156231;23;20403;-85
2023/08/31 02:56:15;;;;;;;1.40;1.30;;;23.80;83.50;;;;;;6155883;23;20399;-86
2023/08/31 02:58:42;;;;;;;1.20;1.07;;;24.00;83.70;;;;;;6155783;23;20404;-93
2023/08/31 03:01:11;;;;;;;1.77;1.17;;;23.80;83.40;;;;;;6155595;23;20400;-85
2023/08/31 03:03:39;;;;;;;1.40;1.10;;;23.80;83.40;;;;;;6156086;23;20407;-86
2023/08/31 03:06:07;;;;;;;1.20;0.97;;;23.80;83.40;;;;;;6155953;23;20462;-86
2023/08/31 03:08:36;;;;;;;1.30;1.10;;;23.80;83.40;;;;;;6155565;23;20733;-85
2023/08/31 03:11:03;;;;;;;1.20;0.90;;;23.80;83.40;;;;;;6156005;23;20398;-85
2023/08/31 03:13:30;;;;;;;1.20;1.00;;;23.80;83.40;;;;;;6155569;23;20502;-86
2023/08/31 03:15:57;;;;;;;1.30;1.10;;;23.80;83.40;;;;;;6156340;23;20392;-86
2023/08/31 03:18:24;;;;;;;3.03;1.13;;;23.80;83.40;;;;;;6155900;23;20396;-85
2023/08/31 03:20:51;;;;;;;1.40;1.07;;;23.80;83.50;;;;;;6156220;23;20450;-85
2023/08/31 03:23:17;;;;;;;1.67;1.30;;;23.80;83.30;;;;;;6155704;23;20435;-85
2023/08/31 03:25:46;;;;;;;1.47;1.30;;;23.80;83.30;;;;;;6155990;23;20450;-86
2023/08/31 03:28:13;;;;;;;1.20;1.07;;;24.00;83.60;;;;;;6156181;23;20406;-92
2023/08/31 03:30:39;;;;;;;1.57;1.13;;;23.80;83.40;;;;;;6156011;23;20403;-85
2023/08/31 03:33:06;;;;;;;1.30;1.20;;;23.90;83.50;;;;;;6155782;23;20400;-85
2023/08/31 03:35:33;;;;;;;1.73;1.30;;;23.80;83.50;;;;;;6155546;23;20929;-85
2023/08/31 03:38:00;;;;;;;1.10;1.00;;;23.80;83.40;;;;;;6155653;23;20400;-85
2023/08/31 03:40:27;;;;;;;1.20;1.00;;;23.90;83.50;;;;;;6155956;23;20400;-85
2023/08/31 03:42:55;;;;;;;1.30;1.10;;;23.80;83.30;;;;;;6155758;23;20403;-85
2023/08/31 03:45:22;;;;;;;1.30;1.20;;;23.80;83.40;;;;;;6155669;23;20442;-85
2023/08/31 03:47:49;;;;;;;1.10;0.90;;;23.80;83.30;;;;;;6156735;23;20403;-86
2023/08/31 03:50:15;;;;;;;1.70;1.07;;;23.80;83.30;;;;;;6158162;23;20506;-85
2023/08/31 03:52:42;;;;;;;1.13;0.97;;;23.80;83.30;;;;;;6158027;23;20482;-85
2023/08/31 03:55:09;;;;;;;1.20;1.10;;;23.80;83.40;;;;;;6158044;23;20482;-91
2023/08/31 03:57:36;;;;;;;1.20;1.10;;;23.80;83.30;;;;;;6157806;23;20399;-85
2023/08/31 04:00:08;;;;;;;1.37;1.27;;;23.80;83.40;;;;;;6157769;23;20403;-85
2023/08/31 04:02:35;;;;;;;1.27;1.00;;;23.80;83.40;;;;;;6157226;23;20391;-85
2023/08/31 04:05:05;;;;;;;1.33;1.20;;;23.80;83.40;;;;;;6157355;23;20396;-85
2023/08/31 04:07:32;;;;;;;1.50;1.17;;;23.80;83.30;;;;;;6157702;23;20431;-85
2023/08/31 04:09:59;;;;;;;1.27;1.17;;;23.70;83.30;;;;;;6157539;23;20403;-86
2023/08/31 04:12:29;;;;;;;1.50;1.20;;;23.70;83.30;;;;;;6157204;23;20980;-85
2023/08/31 04:14:55;;;;;;;1.90;1.20;;;23.70;83.20;;;;;;6157230;23;20458;-85
2023/08/31 04:17:24;;;;;;;1.33;1.20;;;23.80;83.40;;;;;;6157412;23;20416;-85
2023/08/31 04:19:51;;;;;;;1.63;0.97;;;23.70;83.20;;;;;;6157804;23;20487;-86
2023/08/31 04:22:18;;;;;;;1.20;1.10;;;23.70;83.20;;;;;;6157690;23;20399;-85
2023/08/31 04:24:46;;;;;;;1.60;1.17;;;23.70;83.20;;;;;;6157171;23;20410;-85
2023/08/31 04:27:12;;;;;;;1.20;1.10;;;23.70;83.10;;;;;;6157477;23;20744;-85
2023/08/31 04:29:39;;;;;;;1.30;1.00;;;23.70;83.20;;;;;;6157445;23;20430;-89
2023/08/31 04:32:06;;;;;;;1.23;1.13;;;23.70;83.20;;;;;;6157717;23;20487;-85
2023/08/31 04:34:35;;;;;;;1.57;1.47;;;23.70;83.20;;;;;;6157314;23;20482;-85
2023/08/31 04:37:02;;;;;;;2.20;1.13;;;23.70;83.10;;;;;;6157431;23;20427;-86
2023/08/31 04:39:29;;;;;;;1.33;1.17;;;23.70;83.20;;;;;;6157501;23;20403;-85
2023/08/31 04:41:55;;;;;;;1.83;1.37;;;23.80;83.30;;;;;;6157321;23;20422;-85
2023/08/31 04:44:22;;;;;;;1.20;1.00;;;23.70;83.10;;;;;;6156954;23;20434;-85
2023/08/31 04:46:49;;;;;;;2.73;1.30;;;23.70;83.10;;;;;;6156982;23;20479;-86
2023/08/31 04:49:16;;;;;;;1.13;1.00;;;23.70;83.00;;;;;;6156879;23;20403;-86
2023/08/31 04:51:45;;;;;;;1.30;1.07;;;23.70;83.10;;;;;;6157246;23;20403;-93
2023/08/31 04:54:12;;;;;;;1.37;1.27;;;23.70;83.10;;;;;;6157202;23;20446;-85
2023/08/31 04:56:39;;;;;;;1.30;1.20;;;23.80;83.30;;;;;;6157566;23;20694;-86
2023/08/31 04:59:05;;;;;;;1.80;1.30;;;23.70;83.20;;;;;;6157102;23;20498;-85
2023/08/31 05:01:32;;;;;;;1.43;1.27;;;23.70;83.10;;;;;;6157022;23;20400;-85
2023/08/31 05:03:59;;;;;;;2.47;1.47;;;23.70;83.00;;;;;;6157063;23;20407;-85
2023/08/31 05:06:26;;;;;;;2.30;1.33;;;23.70;83.10;;;;;;6156786;23;20965;-85
2023/08/31 05:08:54;;;;;;;1.33;1.07;;;23.70;83.00;;;;;;6157397;23;20754;-93
2023/08/31 05:11:21;;;;;;;1.37;1.27;;;23.70;83.10;;;;;;6157276;23;20495;-86
2023/08/31 05:13:48;;;;;;;1.20;1.10;;;23.70;83.20;;;;;;6155842;23;20440;-89
2023/08/31 05:16:15;;;;;;;1.60;1.50;;;23.80;83.30;;;;;;6156201;23;20412;-86
2023/08/31 05:18:42;;;;;;;1.20;1.03;;;23.70;83.10;;;;;;6156439;23;20483;-93
2023/08/31 05:21:09;;;;;;;1.20;1.10;;;23.80;83.30;;;;;;6156686;23;20410;-86
2023/08/31 05:23:35;;;;;;;1.10;1.00;;;23.70;82.90;;;;;;6156589;23;20895;-86
2023/08/31 05:26:04;;;;;;;1.33;1.10;;;23.70;82.90;;;;;;6156686;23;20435;-88
2023/08/31 05:28:31;;;;;;;1.50;1.37;;;23.70;83.00;;;;;;6156601;23;20887;-86
2023/08/31 05:30:58;;;;;;;1.10;1.00;;;23.70;83.10;;;;;;6156755;23;20945;-94
2023/08/31 05:33:28;;;;;;;1.40;1.30;;;23.70;83.10;;;;;;6156883;23;20696;-95
2023/08/31 05:35:55;;;;;;;1.67;1.13;;;23.80;83.10;;;;;;6156541;23;20707;-86
2023/08/31 05:38:23;;;;;;;2.07;1.60;;;23.70;83.10;;;;;;6156469;23;20399;-94
2023/08/31 05:40:50;;;;;;;1.50;1.33;;;23.70;83.00;;;;;;6156039;23;21035;-86
2023/08/31 05:43:18;;;;;;;1.50;1.20;;;23.70;83.10;;;;;;6156926;23;20424;-86
2023/08/31 05:45:46;;;;;;;1.10;0.93;;;23.70;82.90;;;;;;6157280;23;20408;-86
2023/08/31 05:48:13;;;;;;;1.20;1.03;;;23.70;83.10;;;;;;6156733;23;20447;-95
2023/08/31 05:50:40;;;;;;;1.40;1.30;;;23.70;83.10;;;;;;6156915;23;20455;-86
2023/08/31 05:53:07;;;;;;;1.37;1.23;;;23.70;83.10;;;;;;6156897;23;20400;-95
2023/08/31 05:55:34;;;;;;;2.13;1.30;;;23.70;83.20;;;;;;6156989;23;20396;-86
2023/08/31 05:58:02;;;;;;;1.70;1.50;;;23.80;83.30;;;;;;6156597;23;20913;-86
2023/08/31 06:00:30;;;;;;;1.50;1.27;;;23.70;83.10;;;;;;6156257;23;20410;-89
2023/08/31 06:02:57;;;;;;;2.73;1.30;;;23.70;83.00;;;;;;6156778;23;20396;-92
2023/08/31 06:05:24;;;;;;;1.40;1.30;;;23.70;83.10;;;;;;6155842;23;20400;-95
2023/08/31 06:07:50;;;;;;;1.30;1.20;;;23.70;83.10;;;;;;6156350;23;20763;-91
2023/08/31 06:10:17;;;;;;;1.13;1.03;;;23.70;83.10;;;;;;6155358;23;20412;-92
2023/08/31 06:12:44;;;;;;;1.97;1.67;;;23.70;83.40;;;;;;6156571;23;20410;-96
2023/08/31 06:15:11;;;;;;;1.40;1.30;;;23.90;83.10;;;;;;6156689;23;20432;-88
2023/08/31 06:17:39;;;;;;;2.03;1.37;;;23.70;82.90;;;;;;6157309;23;20491;-89
2023/08/31 06:20:08;;;;;;;8.80;1.53;;;23.70;83.20;;;;;;6156874;23;20415;-89
2023/08/31 06:22:35;;;;;;;2.03;1.33;;;23.70;83.30;;;;;;6157650;23;20416;-88
2023/08/31 06:25:02;;;;;;;1.50;1.37;;;23.70;83.50;;;;;;6157607;23;20418;-88
2023/08/31 06:27:29;;;;;;;2.57;1.90;;;23.70;83.60;;;;;;6156822;23;20487;-92
2023/08/31 06:29:56;;;;;;;1.20;1.10;;;23.70;83.50;;;;;;6156695;23;20404;-96
2023/08/31 06:32:23;;;;;;;1.60;1.50;;;23.70;83.80;;;;;;6157177;23;20411;-96
2023/08/31 06:34:52;;;;;;;1.50;1.40;;;23.70;83.90;;;;;;6156350;23;20714;-88
2023/08/31 06:37:20;;;;;;;2.77;1.47;;;23.70;84.10;;;;;;6156279;23;20414;-89
2023/08/31 06:39:47;;;;;;;2.10;1.23;;;23.70;84.10;;;;;;6156643;23;20411;-88
2023/08/31 06:42:13;;;;;;;1.30;1.20;;;23.70;84.10;;;;;;6155932;23;20491;-88
2023/08/31 06:44:40;;;;;;;2.60;1.33;;;23.70;84.10;;;;;;6156143;23;20507;-88
2023/08/31 06:47:07;;;;;;;2.60;1.20;;;23.70;84.10;;;;;;6156222;23;20554;-88
2023/08/31 06:49:35;;;;;;;1.30;1.17;;;23.70;84.10;;;;;;6156863;23;20404;-95
2023/08/31 06:52:03;;;;;;;3.20;2.10;;;23.70;83.80;;;;;;6158673;23;20724;-88
2023/08/31 06:54:30;;;;;;;2.57;1.60;;;23.70;83.80;;;;;;6158510;23;20400;-89
2023/08/31 06:56:58;;;;;;;1.50;1.40;;;23.70;83.80;;;;;;6156679;23;20423;-96
2023/08/31 06:59:24;;;;;;;1.60;1.50;;;23.70;82.80;;;;;;6155235;23;20486;-88
2023/08/31 07:01:51;;;;;;;2.27;2.07;;;23.70;83.30;;;;;;6156079;23;20408;-95
2023/08/31 07:07:49;;;;;;;4.33;1.90;;;23.80;84.10;;;;;;6159377;23;20462;-95
2023/08/31 07:10:16;;;;;;;2.10;1.90;;;23.70;83.50;;;;;;6156215;23;20482;-93
2023/08/31 07:12:44;;;;;;;2.43;2.23;;;23.80;83.80;;;;;;6156610;23;20514;-92
2023/08/31 07:15:11;;;;;;;3.40;1.73;;;23.80;85.20;;;;;;6157506;23;20455;-94
2023/08/31 07:17:38;;;;;;;1.60;1.50;;;23.80;84.50;;;;;;6158179;23;20465;-93
2023/08/31 07:20:06;;;;;;;3.20;2.07;;;23.80;84.60;;;;;;6157193;23;20411;-94
2023/08/31 07:22:34;;;;;;;3.20;1.70;;;23.80;84.30;;;;;;6158180;23;20442;-95
2023/08/31 07:25:03;;;;;;;9.03;1.93;;;23.80;84.20;;;;;;6161429;23;20419;-95
2023/08/31 07:27:34;;;;;;;2.50;2.30;;;23.80;84.10;;;;;;6161190;23;20455;-96
2023/08/31 07:30:02;;;;;;;2.73;1.73;;;23.80;84.50;;;;;;6169894;23;20472;-93
2023/08/31 07:32:30;;;;;;;2.93;1.47;;;23.80;83.90;;;;;;6169516;23;20408;-96
2023/08/31 07:34:58;;;;;;;2.97;1.60;;;23.80;83.90;;;;;;6167771;23;20400;-96
2023/08/31 07:37:25;;;;;;;2.73;1.50;;;23.80;83.90;;;;;;6167924;23;20411;-96
2023/08/31 07:40:09;;;;;;;1.90;1.63;;;23.80;84.20;;;;;;6171155;23;20432;-91
2023/08/31 07:45:12;;;;;;;1.90;1.60;;;23.90;84.40;;;;;;6180980;23;20450;-95
2023/08/31 07:47:39;;;;;;;2.33;1.43;;;23.90;84.40;;;;;;6191143;23;20446;-96
2023/08/31 07:50:07;;;;;;;2.10;1.60;;;23.90;85.10;;;;;;6189312;23;20407;-96
2023/08/31 07:52:34;;;;;;;2.13;1.93;;;23.90;84.70;;;;;;6188390;23;20406;-96
2023/08/31 07:55:03;;;;;;;2.23;1.60;;;23.90;84.40;;;;;;6188758;23;20398;-96
2023/08/31 07:57:30;;;;;;;2.90;1.80;;;23.90;84.50;;;;;;6188261;23;20730;-96
2023/08/31 07:59:57;;;;;;;1.73;1.60;;;23.90;84.40;;;;;;6189251;23;20468;-96
2023/08/31 08:02:24;;;;;;;1.90;1.50;;;23.90;84.20;;;;;;6190321;23;20429;-96
2023/08/31 08:04:51;;;;;;;2.27;1.90;;;23.90;84.20;;;;;;6190911;23;20461;-96
2023/08/31 08:07:18;;;;;;;4.40;1.60;;;23.90;84.10;;;;;;6189348;23;20490;-96
2023/08/31 08:09:45;;;;;;;1.70;1.43;;;23.90;84.00;;;;;;6190967;23;20410;-96
2023/08/31 08:12:13;;;;;;;1.93;1.37;;;24.00;84.00;;;;;;6189806;23;20441;-96
2023/08/31 08:14:40;;;;;;;1.50;1.30;;;23.90;83.80;;;;;;6191668;23;20470;-96
2023/08/31 08:17:07;;;;;;;1.93;1.70;;;23.90;83.80;;;;;;6190114;23;20406;-96
2023/08/31 08:19:33;;;;;;;2.33;1.77;;;24.00;83.80;;;;;;6190093;23;20477;-88
2023/08/31 08:22:00;;;;;;;2.37;1.90;;;24.00;84.20;;;;;;6187165;23;20485;-91
2023/08/31 08:24:27;;;;;;;3.00;1.50;;;23.90;83.60;;;;;;6187242;23;20425;-92
2023/08/31 08:26:54;;;;;;;1.40;1.30;;;23.90;83.60;;;;;;6187634;23;20529;-91
2023/08/31 08:29:22;;;;;;;1.80;1.20;;;23.90;83.70;;;;;;6187764;23;20449;-91
2023/08/31 08:31:49;;;;;;;2.23;1.70;;;24.00;83.80;;;;;;6187590;23;20403;-91
2023/08/31 08:34:16;;;;;;;2.60;1.77;;;24.00;83.80;;;;;;6186911;23;20435;-91
2023/08/31 08:36:43;;;;;;;3.10;1.63;;;24.00;83.70;;;;;;6187145;23;20891;-91
2023/08/31 08:39:09;;;;;;;1.50;1.40;;;24.00;83.70;;;;;;6187199;23;20394;-91
2023/08/31 08:41:37;;;;;;;3.53;1.80;;;24.00;83.70;;;;;;6187716;23;20437;-92
2023/08/31 08:44:06;;;;;;;2.33;1.90;;;24.00;83.60;;;;;;6186839;23;20452;-91
2023/08/31 08:46:35;;;;;;;1.87;1.30;;;24.00;83.80;;;;;;6186868;23;20927;-92
2023/08/31 08:49:03;;;;;;;1.80;1.53;;;24.10;83.90;;;;;;6187205;23;20703;-91
2023/08/31 08:51:31;;;;;;;2.17;1.30;;;24.10;83.90;;;;;;6187115;23;20421;-91
2023/08/31 08:54:00;;;;;;;1.30;1.03;;;24.10;84.90;;;;;;6187201;23;20407;-92
2023/08/31 08:56:27;;;;;;;2.43;1.40;;;24.10;83.70;;;;;;6187328;23;20421;-92
2023/08/31 08:58:54;;;;;;;1.70;1.60;;;24.10;83.80;;;;;;6186931;23;20485;-92
2023/08/31 09:01:22;;;;;;;2.40;1.23;;;24.10;83.80;;;;;;6187496;23;20886;-92
2023/08/31 09:03:51;;;;;;;2.80;1.40;;;24.10;83.80;;;;;;6188415;23;20451;-92
2023/08/31 09:06:17;;;;;;;1.50;1.20;;;24.10;83.80;;;;;;6186835;23;20493;-92
2023/08/31 09:08:43;;;;;;;2.90;1.50;;;24.10;84.70;;;;;;6187184;23;20537;-93
2023/08/31 09:11:20;;;;;;;2.77;2.07;;;24.20;84.20;;;;;;6187084;23;20437;-94
2023/08/31 09:13:47;;;;;;;2.93;1.60;;;24.10;83.30;;;;;;6187233;23;20226;-94
2023/08/31 09:16:25;;;;;;;3.93;2.00;;;24.10;83.00;;;;;;6186744;23;20485;-94
2023/08/31 09:18:53;;;;;;;2.30;1.60;;;24.10;83.50;;;;;;6187821;23;20414;-93
2023/08/31 09:21:21;;;;;;;3.63;1.37;;;24.10;83.70;;;;;;6190278;23;20478;-95
2023/08/31 09:23:57;;;;;;;1.97;1.30;;;24.10;84.70;;;;;;6200689;23;20398;-95
2023/08/31 09:26:25;;;;;;;1.60;1.50;;;24.10;83.70;;;;;;6200048;23;20440;-95
2023/08/31 09:28:53;;;;;;;2.87;1.30;;;24.10;84.60;;;;;;6193538;23;20728;-94
2023/08/31 09:31:20;;;;;;;1.93;1.50;;;24.10;84.00;;;;;;6187085;23;20430;-94
2023/08/31 09:33:51;;;;;;;2.20;1.33;;;24.10;84.10;;;;;;6186276;23;20417;-95
2023/08/31 09:36:21;;;;;;;1.87;1.27;;;24.10;83.90;;;;;;6192553;23;20407;-94
2023/08/31 09:38:48;;;;;;;2.83;1.30;;;24.10;84.30;;;;;;6191663;23;20486;-94
2023/08/31 09:41:16;;;;;;;2.73;1.80;;;24.10;84.10;;;;;;6192245;23;20487;-94
2023/08/31 09:43:43;;;;;;;1.80;1.50;;;24.10;84.00;;;;;;6192847;23;20469;-94
2023/08/31 09:46:11;;;;;;;2.83;1.90;;;24.10;83.90;;;;;;6193376;23;20399;-93
2023/08/31 09:48:40;;;;;;;2.43;1.60;;;24.10;83.90;;;;;;6194562;23;20922;-94
2023/08/31 09:51:10;;;;;;;1.90;1.20;;;24.10;83.90;;;;;;6192068;23;20874;-94
2023/08/31 09:53:39;;;;;;;2.90;1.43;;;24.10;83.90;;;;;;6193029;23;20406;-94
2023/08/31 09:56:07;;;;;;;1.50;1.40;;;24.10;83.90;;;;;;6192254;23;20395;-94
2023/08/31 10:01:15;;;;;;;1.40;1.30;;;24.00;83.80;;;;;;6196865;23;20429;-94
2023/08/31 10:03:42;;;;;;;1.50;1.30;;;24.00;83.80;;;;;;6196785;23;20461;-95
2023/08/31 10:06:10;;;;;;;1.67;1.57;;;24.00;83.70;;;;;;6198024;23;20398;-92
2023/08/31 10:08:40;;;;;;;1.53;1.40;;;24.00;83.60;;;;;;6194258;23;20509;-92
2023/08/31 10:11:10;;;;;;;3.23;2.00;;;24.00;83.60;;;;;;6193425;23;20414;-94
2023/08/31 10:13:40;;;;;;;1.63;1.17;;;24.00;83.60;;;;;;6195539;23;20431;-93
2023/08/31 10:16:09;;;;;;;2.90;1.30;;;24.00;83.60;;;;;;6189460;23;20411;-91
2023/08/31 10:18:36;;;;;;;1.63;1.20;;;24.00;83.60;;;;;;6189430;23;20399;-94
2023/08/31 10:21:05;;;;;;;1.40;1.30;;;24.00;83.60;;;;;;6191401;23;20482;-93
2023/08/31 10:23:35;;;;;;;2.10;1.53;;;24.00;84.00;;;;;;6191052;23;20399;-94
2023/08/31 10:26:04;;;;;;;1.10;1.00;;;24.00;83.70;;;;;;6191137;23;20392;-92
2023/08/31 10:28:40;;;;;;;1.63;1.20;;;24.00;83.70;;;;;;6189122;23;20439;-93
2023/08/31 10:31:09;;;;;;;2.23;1.20;;;24.00;83.50;;;;;;6192457;23;20460;-93
2023/08/31 10:33:40;;;;;;;1.93;1.30;;;24.00;83.50;;;;;;6192728;23;20411;-92
2023/08/31 10:36:13;;;;;;;1.50;1.20;;;24.00;83.40;;;;;;6188567;23;20803;-92
2023/08/31 10:38:40;;;;;;;1.50;1.30;;;24.00;83.30;;;;;;6190503;23;20430;-93
2023/08/31 10:41:23;;;;;;;2.53;1.30;;;24.00;83.00;;;;;;6190879;23;20418;-92
2023/08/31 10:43:52;;;;;;;1.77;1.30;;;24.00;82.60;;;;;;6189915;23;20494;-91
2023/08/31 10:46:31;;;;;;;4.27;1.10;;;24.00;82.40;;;;;;6188942;23;20399;-92
2023/08/31 10:48:59;;;;;;;2.10;1.20;;;24.00;82.50;;;;;;6188963;23;20442;-92
2023/08/31 10:51:28;;;;;;;1.17;1.00;;;24.00;82.40;;;;;;6188013;23;20410;-91
2023/08/31 10:54:10;;;;;;;2.63;1.10;;;24.00;82.40;;;;;;6191377;23;20425;-91
2023/08/31 10:56:56;;;;;;;1.40;1.10;;;24.10;82.80;;;;;;6186746;23;20402;-92
2023/08/31 10:59:24;;;;;;;2.03;1.60;;;24.10;83.10;;;;;;6186298;23;20699;-96
2023/08/31 11:01:55;;;;;;;4.33;1.20;;;24.10;84.00;;;;;;6186226;23;20886;-94
2023/08/31 11:04:23;;;;;;;1.20;1.00;;;24.10;83.70;;;;;;6186961;23;20406;-93
2023/08/31 11:06:50;;;;;;;3.10;1.17;;;24.10;82.80;;;;;;6185912;23;20430;-86
2023/08/31 11:09:21;;;;;;;1.30;1.10;;;24.10;83.00;;;;;;6185851;23;20450;-86
2023/08/31 11:11:51;;;;;;;1.40;1.10;;;24.10;83.20;;;;;;6187158;23;20478;-91
2023/08/31 11:14:17;;;;;;;3.20;1.63;;;24.10;83.00;;;;;;6185935;23;20430;-88
2023/08/31 11:16:45;;;;;;;2.57;1.30;;;24.10;83.00;;;;;;6190237;23;20481;-89
2023/08/31 11:19:12;;;;;;;2.30;1.10;;;24.10;83.20;;;;;;6187482;23;20493;-89
2023/08/31 11:21:40;;;;;;;1.77;1.10;;;24.10;82.90;;;;;;6187308;23;20434;-89
2023/08/31 11:24:09;;;;;;;2.27;1.40;;;24.00;82.60;;;;;;6189489;23;20489;-89
2023/08/31 11:26:36;;;;;;;1.30;1.20;;;24.10;82.60;;;;;;6189096;23;20395;-90
2023/08/31 11:29:07;;;;;;;13.27;1.70;;;24.00;82.40;;;;;;6186639;23;20489;-90
2023/08/31 11:31:38;;;;;;;1.23;1.07;;;24.10;82.50;;;;;;6187018;23;20474;-90
2023/08/31 11:34:06;;;;;;;1.57;1.00;;;24.00;82.50;;;;;;6187159;23;20387;-90
2023/08/31 11:36:33;;;;;;;1.27;1.10;;;24.10;82.50;;;;;;6186740;23;20894;-91
2023/08/31 11:39:03;;;;;;;3.00;1.37;;;24.10;82.50;;;;;;6186662;23;20458;-89
2023/08/31 11:41:32;;;;;;;1.40;1.10;;;24.10;82.60;;;;;;6187822;23;20410;-90
2023/08/31 11:43:59;;;;;;;2.63;1.13;;;24.10;82.60;;;;;;6186559;23;20509;-89
2023/08/31 11:46:28;;;;;;;2.23;1.30;;;24.10;82.60;;;;;;6186986;23;20430;-90
2023/08/31 11:48:55;;;;;;;2.70;1.00;;;24.10;82.60;;;;;;6187165;23;20942;-90
2023/08/31 11:51:23;;;;;;;1.47;1.07;;;24.10;82.50;;;;;;6187672;23;20461;-90
2023/08/31 11:53:50;;;;;;;1.20;1.10;;;24.10;82.40;;;;;;6187445;23;20547;-90
2023/08/31 11:56:18;;;;;;;1.50;1.00;;;24.10;82.50;;;;;;6186607;23;20403;-90
2023/08/31 11:58:45;;;;;;;2.30;1.20;;;24.10;82.60;;;;;;6186642;23;20434;-89
2023/08/31 12:01:18;;;;;;;1.30;0.90;;;24.10;82.60;;;;;;6187060;23;20395;-90
2023/08/31 12:03:47;;;;;;;1.60;1.40;;;24.10;82.50;;;;;;6188952;23;20415;-91
2023/08/31 12:06:17;;;;;;;1.80;1.30;;;24.10;82.60;;;;;;6190974;23;20464;-90
2023/08/31 12:08:44;;;;;;;1.93;1.30;;;24.10;82.70;;;;;;6191605;23;20558;-90
2023/08/31 12:11:11;;;;;;;3.27;1.13;;;24.10;82.70;;;;;;6188878;23;20759;-89
2023/08/31 12:13:38;;;;;;;1.27;0.90;;;24.10;82.80;;;;;;6201713;23;20956;-90
2023/08/31 12:16:12;;;;;;;1.50;1.00;;;24.20;82.80;;;;;;6188427;23;20427;-89
2023/08/31 12:18:39;;;;;;;2.50;1.10;;;24.10;82.70;;;;;;6188414;23;20441;-90
2023/08/31 12:21:07;;;;;;;1.67;1.30;;;24.10;82.60;;;;;;6188112;23;20406;-90
2023/08/31 12:23:34;;;;;;;1.93;1.07;;;24.10;82.60;;;;;;6187981;23;20399;-91
2023/08/31 12:26:02;;;;;;;4.17;1.27;;;24.10;83.00;;;;;;6188301;23;20886;-91
2023/08/31 12:28:29;;;;;;;2.40;1.07;;;24.10;83.10;;;;;;6187879;23;20449;-91
2023/08/31 12:30:57;;;;;;;1.83;1.27;;;24.10;82.80;;;;;;6187181;23;21039;-91
2023/08/31 12:33:24;;;;;;;1.43;1.23;;;24.10;82.60;;;;;;6187046;23;20402;-88
2023/08/31 12:35:51;;;;;;;10.23;1.50;;;24.10;83.30;;;;;;6187351;23;20886;-90
2023/08/31 12:38:19;;;;;;;1.63;1.00;;;24.20;82.40;;;;;;6187095;23;20489;-88
2023/08/31 12:40:46;;;;;;;2.00;1.10;;;24.10;82.90;;;;;;6186559;23;20437;-92
2023/08/31 12:43:13;;;;;;;1.80;1.20;;;24.10;83.00;;;;;;6186792;23;20737;-88
2023/08/31 12:45:41;;;;;;;1.63;1.37;;;24.10;82.80;;;;;;6186348;23;20426;-93
2023/08/31 12:48:08;;;;;;;1.30;1.00;;;24.10;82.80;;;;;;6186419;23;20450;-88
2023/08/31 12:50:35;;;;;;;1.17;0.97;;;24.10;82.80;;;;;;6186658;23;20407;-88
2023/08/31 12:53:03;;;;;;;2.13;1.30;;;24.10;82.90;;;;;;6187172;23;20478;-87
2023/08/31 12:55:31;;;;;;;2.40;1.27;;;24.10;83.70;;;;;;6187599;23;20490;-91
2023/08/31 12:57:58;;;;;;;2.37;1.20;;;24.10;83.00;;;;;;6187472;23;20403;-87
2023/08/31 13:00:27;;;;;;;1.60;1.27;;;24.10;82.90;;;;;;6187013;23;20749;-88